Pagrindinis puslapis
METAR-TAF:

METAR-TAF

Oro uostai :

Pago Pago, United States Minor Outlying Islands

platuma: 14-20S, ilguma: 170-43W, Aukštis: 3 m

Dabartinis oras

Ataskaita buvo paskelbta 49 minutes, ne 01:50 UTC
Vėjas 6 kt nuo kintamojo kryptimis
Temperatūra 30°C
Drėgmė 70%
Slėgis 1012 hPa
Matomumas: 19.3 km
Mažai debesys ne aukštis 1900 ft

METAR: NSTU 170150Z VRB06KT 12SM FEW019 30/24 A2989 RMK SLP124 T03000235

Laikas: 15:39 (02:39 UTC)

Prognozė

Ataskaita buvo paskelbta 3 valandos ir 12 minutes, ne 23:27 UTC
Prognozė galioja nuo 17 metu 00 UTC su 17 metu 24 UTC
Vėjas 10 kt iš Rytų
Matomumas: 10 km
Mažai debesys ne aukštis 2000 ft
Išsisklaidę debesys ne aukštis 4000 ft
Išsisklaidę debesys ne aukštis 12000 ft

TAF: NSTU 162327Z 1700/1724 10010KT P6SM FEW020 SCT040 SCT120

Orai ataskaitas ir orų prognozės (METAR, TAF).

turimą stotys yra geltonos ir raudonos taškus žemėlapyje.

Perkelti pele per norėdami pamatyti stoties vardą.

Tada spustelėkite, norėdami matyti oro stebėjimo ir prognozės.

Norėdami pakeisti žemėlapį: spustelėkite ant žalios mygtukų su juodo kryžiaus žemyn,; žalią mygtuką su brūkšneliu, jei norite nutolinti; arba žalių rodyklių gretimoms žemėlapius.


METAR-TAF: